Terminal Aerodrome Forecast
Issued by NWS Cleveland, OH

Home | Current Version | Previous Version | Graphics & Text | Print | Product List | Glossary On
Versions: 1 2 3 4 5 6 7 8 9 10 11 12 13
000
FTUS41 KCLE 181700
TAFERI
TAF
KERI 181740Z 1818/1918 01008KT P6SM SCT250
     FM190100 VRB03KT P6SM SCT250
     FM191600 01007KT P6SM SCT040=

USA.gov is the U.S. government's official web portal to all federal, state and local government web resources and services.